EDT,Max TemperatureF,Mean TemperatureF,Min TemperatureF,Max Dew PointF,MeanDew PointF,Min DewpointF,Max Humidity, Mean Humidity, Min Humidity, Max Sea Level PressureIn, Mean Sea Level PressureIn, Min Sea Level PressureIn, Max VisibilityMiles, Mean VisibilityMiles, Min VisibilityMiles, Max Wind SpeedMPH, Mean Wind SpeedMPH, Max Gust SpeedMPH,PrecipitationIn, CloudCover, Events, WindDirDegrees
2012-9-1,76,65,53,63,58,52,100,73,46,30.17,30.06,29.95,10,5,0,12,2,14,0.00,3,Fog,39
2012-9-2,75,62,48,54,50,45,100,69,38,30.20,30.15,30.13,10,10,10,10,3,14,T,3,,345
2012-9-3,79,62,45,57,50,45,100,74,47,30.27,30.21,30.13,10,6,0,13,4,18,0.00,4,Fog,174
2012-9-4,66,62,58,63,60,55,100,92,84,30.14,30.07,29.86,10,8,2,14,5,16,0.99,8,Rain,171
2012-9-5,72,66,59,66,63,59,100,87,73,29.93,29.82,29.69,10,7,0,14,5,20,0.35,7,Fog-Rain,319
2012-9-6,80,70,59,65,61,59,100,79,58,29.95,29.91,29.85,10,5,0,14,3,17,0.00,4,Fog,141
2012-9-7,79,67,54,64,58,52,100,70,40,29.98,29.96,29.91,10,5,0,10,2,17,0.00,2,Fog,146
2012-9-8,79,69,59,67,63,54,100,79,58,29.88,29.71,29.54,10,8,0,32,12,41,0.82,4,Fog-Rain-Thunderstorm,184
2012-9-9,66,56,46,54,49,46,100,78,56,29.97,29.87,29.75,10,10,10,15,4,22,0.00,3,,310
2012-9-10,58,52,45,50,45,41,100,80,59,30.16,30.04,29.97,10,10,5,17,6,27,0.02,7,Rain,315
2012-9-11,66,52,38,49,43,39,100,72,44,30.31,30.25,30.16,10,9,2,12,3,16,0.00,0,,320
2012-9-12,77,59,41,55,46,41,100,72,43,30.40,30.35,30.30,10,5,0,15,4,17,0.00,3,Fog,169
2012-9-13,80,63,45,57,49,45,100,70,39,30.39,30.35,30.28,10,5,0,14,3,18,0.00,2,Fog,188
2012-9-14,79,64,49,61,53,48,100,73,45,30.29,30.23,30.06,10,4,0,15,5,20,0.00,3,Fog,191
2012-9-15,62,55,48,54,49,44,93,77,60,30.13,30.10,30.05,10,10,10,20,7,28,0.02,6,Rain,306
2012-9-16,59,48,36,44,39,35,100,70,40,30.17,30.12,30.07,10,10,10,15,4,21,0.00,1,,306
2012-9-17,75,55,34,54,41,35,100,71,41,30.15,30.09,30.01,10,6,0,10,2,14,0.00,3,Fog,207
2012-9-18,67,58,49,65,59,49,97,92,86,30.04,29.79,29.60,10,6,1,26,11,36,1.73,6,Rain,177
2012-9-19,63,51,38,61,46,37,100,74,47,30.29,29.98,29.65,10,9,0,16,5,24,0.02,4,Fog-Rain,312
2012-9-20,62,49,36,45,41,37,100,73,46,30.34,30.26,30.15,10,6,0,17,5,23,0.00,2,Fog,171
2012-9-21,69,57,45,52,48,44,96,72,47,30.18,30.12,30.05,10,10,10,17,7,22,0.00,1,,175
2012-9-22,69,58,47,59,53,46,100,81,61,30.07,29.93,29.82,10,9,2,18,7,23,0.42,4,Rain,176
2012-9-23,60,49,38,55,45,37,100,74,47,30.14,29.98,29.85,10,10,6,15,5,22,0.03,4,Rain,262
2012-9-24,59,48,37,45,39,37,100,74,47,30.18,30.13,30.07,10,5,0,15,3,20,0.00,5,Fog,248
2012-9-25,67,54,40,42,39,37,82,60,37,30.12,30.09,30.06,10,10,1,18,9,26,0.00,0,,195
2012-9-26,64,58,51,55,53,42,100,83,66,30.09,30.04,30.00,10,8,1,15,6,20,0.45,6,Rain,224
2012-9-27,56,46,36,54,44,36,100,77,54,30.33,30.20,30.08,10,7,0,13,3,18,0.03,4,Fog-Rain,318
2012-9-28,49,43,36,48,45,36,100,100,100,30.32,30.17,30.08,10,3,0,6,0,8,0.05,8,Fog-Rain,69
2012-9-29,54,51,48,54,50,48,100,97,93,30.08,30.01,29.95,10,4,0,7,1,8,0.22,8,Fog-Rain,3
2012-9-30,53,51,49,52,51,48,100,97,93,29.97,29.82,29.67,10,7,0,7,2,9,0.20,8,Fog-Rain,296